createdAt,value
2023-05-14T00:02:06.757Z,100.00
2023-05-14T00:04:33.200Z,100.00
2023-05-14T00:06:59.665Z,100.00
2023-05-14T00:09:26.044Z,100.00
2023-05-14T00:11:52.456Z,100.00
2023-05-14T00:14:19.128Z,100.00
2023-05-14T00:16:45.490Z,100.00
2023-05-14T00:19:12.013Z,100.00
2023-05-14T00:21:38.470Z,100.00
2023-05-14T00:24:04.820Z,100.00
2023-05-14T00:26:31.258Z,100.00
2023-05-14T00:28:57.614Z,100.00
2023-05-14T00:31:24.066Z,100.00
2023-05-14T00:33:50.471Z,100.00
2023-05-14T00:36:16.863Z,100.00
2023-05-14T00:38:43.217Z,100.00
2023-05-14T00:41:09.586Z,100.00
2023-05-14T00:43:35.935Z,100.00
2023-05-14T00:46:02.334Z,100.00
2023-05-14T00:48:28.766Z,100.00
2023-05-14T00:50:55.166Z,100.00
2023-05-14T00:53:21.562Z,100.00
2023-05-14T00:55:47.921Z,100.00
2023-05-14T00:58:14.312Z,100.00
2023-05-14T01:00:40.780Z,100.00
2023-05-14T01:03:07.247Z,100.00
2023-05-14T01:05:33.658Z,100.00
2023-05-14T01:08:00.004Z,100.00
2023-05-14T01:10:26.569Z,100.00
2023-05-14T01:12:53.102Z,100.00
2023-05-14T01:15:19.470Z,100.00
2023-05-14T01:17:45.957Z,100.00
2023-05-14T01:20:12.342Z,100.00
2023-05-14T01:22:38.731Z,100.00
2023-05-14T01:25:05.130Z,100.00
2023-05-14T01:27:31.538Z,100.00
2023-05-14T01:29:57.925Z,100.00
2023-05-14T01:32:24.350Z,100.00
2023-05-14T01:34:50.942Z,100.00
2023-05-14T01:37:17.326Z,100.00
2023-05-14T01:39:43.694Z,100.00
2023-05-14T01:42:10.052Z,100.00
2023-05-14T01:44:36.430Z,100.00
2023-05-14T01:47:02.841Z,100.00
2023-05-14T01:49:29.199Z,100.00
2023-05-14T01:51:55.561Z,100.00
2023-05-14T01:54:21.975Z,100.00
2023-05-14T01:56:48.368Z,100.00
2023-05-14T01:59:14.729Z,100.00
2023-05-14T02:01:41.299Z,100.00
2023-05-14T02:04:07.831Z,100.00
2023-05-14T02:06:34.229Z,100.00
2023-05-14T02:09:00.613Z,100.00
2023-05-14T02:11:27.022Z,100.00
2023-05-14T02:13:53.449Z,100.00
2023-05-14T02:16:20.986Z,100.00
2023-05-14T02:18:47.368Z,100.00
2023-05-14T02:21:13.760Z,100.00
2023-05-14T02:23:41.939Z,100.00
2023-05-14T02:26:08.676Z,100.00
2023-05-14T02:28:35.017Z,100.00
2023-05-14T02:31:01.455Z,100.00
2023-05-14T02:33:27.873Z,100.00
2023-05-14T02:35:54.312Z,100.00
2023-05-14T02:38:20.716Z,100.00
2023-05-14T02:40:47.128Z,100.00
2023-05-14T02:43:13.483Z,100.00
2023-05-14T02:45:39.842Z,100.00
2023-05-14T02:48:06.352Z,100.00
2023-05-14T02:50:32.770Z,100.00
2023-05-14T02:52:59.155Z,100.00
2023-05-14T02:55:25.506Z,100.00
2023-05-14T02:57:51.915Z,100.00
2023-05-14T03:00:18.317Z,100.00
2023-05-14T03:02:45.302Z,100.00
2023-05-14T03:05:12.264Z,100.00
2023-05-14T03:07:38.624Z,100.00
2023-05-14T03:10:04.976Z,100.00
2023-05-14T03:12:31.328Z,100.00
2023-05-14T03:14:57.693Z,100.00
2023-05-14T03:17:24.076Z,100.00
2023-05-14T03:19:50.470Z,100.00
2023-05-14T03:22:16.841Z,100.00
2023-05-14T03:24:43.187Z,100.00
2023-05-14T03:27:09.592Z,100.00
2023-05-14T03:29:35.986Z,100.00
2023-05-14T03:32:02.396Z,100.00
2023-05-14T03:34:28.773Z,100.00
2023-05-14T03:36:55.126Z,100.00
2023-05-14T03:39:21.544Z,100.00
2023-05-14T03:41:47.911Z,100.00
2023-05-14T03:44:14.288Z,100.00
2023-05-14T03:46:40.636Z,100.00
2023-05-14T03:49:07.079Z,100.00
2023-05-14T03:51:33.512Z,100.00
2023-05-14T03:53:59.914Z,100.00
2023-05-14T03:56:26.298Z,100.00
2023-05-14T03:58:52.666Z,100.00
2023-05-14T04:01:19.058Z,100.00
2023-05-14T04:03:45.650Z,100.00
2023-05-14T04:06:12.306Z,100.00
2023-05-14T04:08:38.701Z,100.00
2023-05-14T04:11:05.071Z,100.00
2023-05-14T04:13:31.428Z,100.00
2023-05-14T04:15:57.849Z,100.00
2023-05-14T04:18:24.284Z,100.00
2023-05-14T04:20:50.678Z,100.00
2023-05-14T04:23:17.034Z,100.00
2023-05-14T04:25:43.415Z,100.00
2023-05-14T04:28:09.779Z,100.00
2023-05-14T04:30:36.115Z,100.00
2023-05-14T04:33:02.539Z,100.00
2023-05-14T04:35:28.982Z,100.00
2023-05-14T04:37:55.382Z,100.00
2023-05-14T04:40:22.023Z,100.00
2023-05-14T04:42:48.651Z,100.00
2023-05-14T04:45:15.024Z,100.00
2023-05-14T04:47:41.405Z,100.00
2023-05-14T04:50:07.822Z,100.00
2023-05-14T04:52:34.199Z,100.00
2023-05-14T04:55:00.583Z,100.00
2023-05-14T04:57:26.948Z,100.00
2023-05-14T04:59:53.310Z,100.00
2023-05-14T05:02:19.657Z,100.00
2023-05-14T05:04:46.046Z,100.00
2023-05-14T05:07:12.419Z,100.00
2023-05-14T05:09:38.810Z,100.00
2023-05-14T05:12:05.211Z,100.00
2023-05-14T05:14:31.612Z,100.00
2023-05-14T05:16:57.973Z,100.00
2023-05-14T05:19:35.768Z,100.00
2023-05-14T05:22:09.192Z,100.00
2023-05-14T05:24:35.605Z,100.00
2023-05-14T05:27:02.020Z,100.00
2023-05-14T05:29:28.440Z,100.00
2023-05-14T05:31:54.932Z,100.00
2023-05-14T05:34:21.374Z,100.00
2023-05-14T05:36:47.755Z,100.00
2023-05-14T05:39:14.099Z,100.00
2023-05-14T05:41:40.514Z,100.00
2023-05-14T05:44:06.884Z,100.00
2023-05-14T05:46:33.404Z,100.00
2023-05-14T05:48:59.873Z,100.00
2023-05-14T05:51:26.250Z,100.00
2023-05-14T05:53:52.627Z,100.00
2023-05-14T05:56:18.973Z,100.00
2023-05-14T05:58:45.326Z,100.00
2023-05-14T06:01:11.718Z,100.00
2023-05-14T06:03:38.101Z,100.00
2023-05-14T06:06:04.450Z,100.00
2023-05-14T06:08:30.821Z,100.00
2023-05-14T06:10:57.155Z,100.00
2023-05-14T06:13:23.551Z,100.00
2023-05-14T06:15:49.911Z,100.00
2023-05-14T06:18:16.263Z,100.00
2023-05-14T06:20:42.676Z,100.00
2023-05-14T06:23:09.036Z,100.00
2023-05-14T06:25:35.514Z,100.00
2023-05-14T06:28:01.941Z,100.00
2023-05-14T06:30:28.384Z,100.00
2023-05-14T06:32:54.857Z,100.00
2023-05-14T06:35:21.228Z,100.00
2023-05-14T06:37:47.636Z,100.00
2023-05-14T06:40:14.069Z,100.00
2023-05-14T06:42:40.486Z,100.00
2023-05-14T06:45:06.885Z,100.00
2023-05-14T06:47:33.296Z,100.00
2023-05-14T06:49:59.694Z,100.00
2023-05-14T06:52:26.065Z,100.00
2023-05-14T06:54:52.404Z,100.00
2023-05-14T06:57:18.774Z,100.00
2023-05-14T06:59:45.203Z,100.00
2023-05-14T07:02:11.593Z,100.00
2023-05-14T07:04:38.055Z,100.00
2023-05-14T07:07:04.470Z,100.00
2023-05-14T07:09:30.806Z,100.00
2023-05-14T07:11:57.174Z,100.00
2023-05-14T07:14:23.521Z,100.00
2023-05-14T07:16:49.983Z,100.00
2023-05-14T07:19:16.454Z,100.00
2023-05-14T07:21:42.926Z,99.88
2023-05-14T07:24:09.280Z,100.00
2023-05-14T07:26:35.677Z,99.69
2023-05-14T07:29:02.039Z,98.37
2023-05-14T07:31:28.413Z,98.83
2023-05-14T07:33:54.829Z,98.28
2023-05-14T07:36:21.754Z,100.00
2023-05-14T07:38:48.102Z,100.00
2023-05-14T07:41:14.502Z,100.00
2023-05-14T07:43:40.868Z,99.55
2023-05-14T07:46:07.220Z,97.84
2023-05-14T07:48:33.627Z,97.44
2023-05-14T07:51:00.028Z,98.25
2023-05-14T07:53:26.386Z,97.80
2023-05-14T07:55:52.781Z,97.12
2023-05-14T07:58:19.178Z,98.59
2023-05-14T08:00:45.563Z,97.75
2023-05-14T08:03:12.057Z,99.47
2023-05-14T08:05:38.520Z,98.86
2023-05-14T08:08:04.877Z,99.66
2023-05-14T08:10:31.332Z,94.92
2023-05-14T08:12:57.706Z,97.65
2023-05-14T08:15:26.345Z,93.47
2023-05-14T08:17:54.094Z,93.82
2023-05-14T08:20:20.465Z,90.23
2023-05-14T08:22:46.798Z,89.48
2023-05-14T08:25:13.208Z,89.92
2023-05-14T08:27:39.551Z,89.20
2023-05-14T08:30:05.916Z,86.11
2023-05-14T08:32:32.296Z,89.56
2023-05-14T08:34:58.736Z,85.98
2023-05-14T08:37:25.094Z,84.96
2023-05-14T08:39:51.448Z,85.32
2023-05-14T08:42:17.822Z,89.02
2023-05-14T08:44:44.247Z,92.15
2023-05-14T08:47:10.656Z,85.23
2023-05-14T08:49:37.019Z,83.72
2023-05-14T08:52:03.413Z,82.34
2023-05-14T08:54:29.798Z,87.32
2023-05-14T08:56:56.185Z,88.33
2023-05-14T08:59:22.598Z,84.22
2023-05-14T09:01:49.172Z,83.56
2023-05-14T09:04:15.736Z,86.87
2023-05-14T09:06:42.179Z,84.84
2023-05-14T09:09:08.547Z,82.27
2023-05-14T09:11:34.947Z,84.65
2023-05-14T09:14:01.295Z,79.77
2023-05-14T09:16:27.731Z,85.54
2023-05-14T09:18:54.264Z,79.93
2023-05-14T09:21:20.702Z,78.36
2023-05-14T09:23:47.101Z,76.25
2023-05-14T09:26:13.498Z,74.67
2023-05-14T09:28:39.890Z,75.09
2023-05-14T09:31:06.325Z,72.33
2023-05-14T09:33:32.734Z,74.69
2023-05-14T09:35:59.132Z,73.22
2023-05-14T09:38:25.516Z,75.67
2023-05-14T09:40:51.863Z,73.18
2023-05-14T09:43:18.218Z,77.91
2023-05-14T09:45:44.616Z,78.19
2023-05-14T09:48:11.080Z,76.15
2023-05-14T09:50:37.497Z,75.72
2023-05-14T09:53:03.867Z,77.10
2023-05-14T09:55:30.267Z,80.83
2023-05-14T09:57:56.602Z,75.70
2023-05-14T10:00:23.131Z,82.90
2023-05-14T10:02:49.743Z,76.76
2023-05-14T10:05:16.132Z,71.57
2023-05-14T10:07:42.540Z,78.73
2023-05-14T10:10:08.905Z,78.28
2023-05-14T10:12:35.240Z,77.54
2023-05-14T10:15:01.620Z,72.37
2023-05-14T10:17:28.051Z,75.91
2023-05-14T10:19:54.455Z,70.29
2023-05-14T10:22:20.810Z,71.94
2023-05-14T10:24:47.197Z,75.13
2023-05-14T10:27:13.591Z,72.72
2023-05-14T10:29:39.938Z,76.40
2023-05-14T10:32:06.296Z,71.76
2023-05-14T10:34:32.666Z,73.82
2023-05-14T10:36:59.006Z,71.56
2023-05-14T10:39:25.342Z,69.28
2023-05-14T10:41:51.705Z,72.50
2023-05-14T10:44:18.102Z,70.02
2023-05-14T10:46:44.528Z,71.79
2023-05-14T10:49:10.928Z,72.05
2023-05-14T10:51:37.420Z,79.62
2023-05-14T10:54:03.922Z,76.95
2023-05-14T10:56:30.270Z,74.72
2023-05-14T10:58:56.664Z,75.01
2023-05-14T11:01:23.067Z,72.77
2023-05-14T11:03:49.474Z,70.94
2023-05-14T11:06:15.955Z,68.28
2023-05-14T11:08:42.334Z,65.93
2023-05-14T11:11:08.710Z,62.11
2023-05-14T11:13:35.057Z,67.98
2023-05-14T11:16:06.305Z,64.68
2023-05-14T11:18:41.955Z,66.63
2023-05-14T11:21:08.554Z,67.16
2023-05-14T11:23:34.909Z,72.68
2023-05-14T11:26:01.325Z,70.38
2023-05-14T11:28:27.742Z,70.89
2023-05-14T11:30:54.095Z,69.65
2023-05-14T11:33:20.523Z,67.99
2023-05-14T11:35:46.963Z,71.69
2023-05-14T11:38:13.351Z,66.20
2023-05-14T11:40:39.702Z,67.01
2023-05-14T11:43:06.126Z,65.99
2023-05-14T11:45:32.538Z,65.48
2023-05-14T11:47:58.975Z,61.34
2023-05-14T11:50:25.553Z,64.45
2023-05-14T11:52:52.114Z,71.83
2023-05-14T11:55:18.531Z,66.00
2023-05-14T11:57:44.914Z,63.04
2023-05-14T12:00:11.308Z,65.41
2023-05-14T12:02:37.716Z,61.09
2023-05-14T12:05:04.197Z,63.16
2023-05-14T12:07:30.640Z,59.75
2023-05-14T12:09:57.025Z,63.29
2023-05-14T12:12:23.416Z,62.54
2023-05-14T12:14:49.821Z,60.29
2023-05-14T12:17:16.207Z,64.17
2023-05-14T12:19:42.570Z,63.98
2023-05-14T12:22:08.952Z,65.83
2023-05-14T12:24:35.335Z,57.58
2023-05-14T12:27:01.719Z,54.11
2023-05-14T12:29:28.075Z,55.06
2023-05-14T12:31:54.488Z,71.40
2023-05-14T12:34:20.852Z,57.12
2023-05-14T12:36:47.188Z,55.70
2023-05-14T12:39:13.593Z,60.85
2023-05-14T12:41:39.989Z,57.20
2023-05-14T12:44:06.391Z,57.20
2023-05-14T12:46:32.801Z,58.00
2023-05-14T12:48:59.228Z,57.30
2023-05-14T12:51:25.621Z,61.47
2023-05-14T12:53:52.019Z,56.16
2023-05-14T12:56:18.359Z,62.97
2023-05-14T12:58:44.743Z,57.24
2023-05-14T13:01:11.182Z,56.36
2023-05-14T13:03:37.542Z,59.88
2023-05-14T13:06:03.912Z,51.48
2023-05-14T13:08:30.299Z,58.48
2023-05-14T13:10:56.651Z,64.81
2023-05-14T13:13:23.039Z,58.09
2023-05-14T13:15:49.379Z,55.12
2023-05-14T13:18:15.731Z,53.86
2023-05-14T13:20:43.180Z,52.56
2023-05-14T13:23:09.758Z,51.15
2023-05-14T13:25:36.140Z,52.00
2023-05-14T13:28:02.613Z,55.15
2023-05-14T13:30:28.976Z,50.12
2023-05-14T13:32:55.389Z,56.19
2023-05-14T13:35:22.083Z,51.40
2023-05-14T13:37:48.798Z,49.19
2023-05-14T13:40:15.220Z,48.79
2023-05-14T13:42:41.565Z,44.93
2023-05-14T13:45:07.940Z,46.86
2023-05-14T13:47:34.331Z,50.19
2023-05-14T13:50:00.733Z,48.63
2023-05-14T13:52:27.107Z,46.68
2023-05-14T13:54:53.452Z,48.09
2023-05-14T13:57:19.837Z,48.90
2023-05-14T13:59:46.244Z,50.28
2023-05-14T14:02:12.614Z,51.71
2023-05-14T14:04:38.998Z,52.02
2023-05-14T14:07:05.407Z,55.21
2023-05-14T14:09:31.761Z,56.03
2023-05-14T14:11:58.155Z,54.08
2023-05-14T14:14:24.562Z,53.56
2023-05-14T14:16:50.966Z,53.46
2023-05-14T14:22:03.679Z,57.68
2023-05-14T14:24:30.022Z,55.02
2023-05-14T14:26:56.371Z,54.14
2023-05-14T14:29:22.715Z,53.57
2023-05-14T14:31:49.204Z,49.49
2023-05-14T14:34:15.603Z,48.72
2023-05-14T14:36:41.947Z,51.91
2023-05-14T14:39:08.319Z,50.44
2023-05-14T14:41:34.713Z,51.83
2023-05-14T14:44:01.105Z,48.81
2023-05-14T14:46:27.552Z,54.66
2023-05-14T14:48:54.074Z,54.24
2023-05-14T14:51:20.617Z,53.35
2023-05-14T14:53:46.957Z,54.16
2023-05-14T14:56:13.304Z,56.05
2023-05-14T14:58:39.646Z,58.21
2023-05-14T15:01:06.045Z,64.70
2023-05-14T15:03:32.571Z,57.81
2023-05-14T15:05:59.112Z,57.56
2023-05-14T15:08:25.519Z,55.13
2023-05-14T15:10:51.874Z,55.79
2023-05-14T15:13:18.300Z,54.23
2023-05-14T15:15:44.657Z,51.17
2023-05-14T15:18:11.151Z,48.94
2023-05-14T15:20:37.562Z,54.04
2023-05-14T15:23:03.950Z,52.38
2023-05-14T15:25:30.366Z,52.87
2023-05-14T15:27:56.727Z,52.04
2023-05-14T15:30:23.126Z,50.50
2023-05-14T15:32:49.535Z,51.29
2023-05-14T15:35:15.960Z,52.70
2023-05-14T15:37:45.908Z,53.40
2023-05-14T15:40:12.447Z,53.47
2023-05-14T15:42:38.884Z,52.54
2023-05-14T15:45:05.447Z,56.93
2023-05-14T15:47:31.832Z,53.26
2023-05-14T15:49:58.196Z,52.34
2023-05-14T15:52:24.613Z,54.22
2023-05-14T15:54:50.955Z,55.89
2023-05-14T15:57:19.813Z,55.73
2023-05-14T15:59:46.394Z,51.97
2023-05-14T16:02:12.786Z,53.12
2023-05-14T16:04:39.211Z,54.16
2023-05-14T16:07:08.008Z,52.51
2023-05-14T16:09:35.786Z,48.92
2023-05-14T16:12:02.146Z,51.39
2023-05-14T16:14:28.548Z,51.63
2023-05-14T16:16:55.017Z,52.36
2023-05-14T16:19:21.695Z,50.57
2023-05-14T16:21:48.091Z,49.21
2023-05-14T16:24:14.454Z,48.84
2023-05-14T16:26:40.812Z,51.05
2023-05-14T16:29:07.147Z,46.06
2023-05-14T16:31:33.539Z,47.44
2023-05-14T16:33:59.980Z,49.15
2023-05-14T16:36:26.347Z,46.97
2023-05-14T16:39:06.757Z,47.28
2023-05-14T16:41:34.306Z,49.52
2023-05-14T16:44:00.632Z,48.02
2023-05-14T16:46:27.004Z,52.51
2023-05-14T16:48:53.397Z,49.11
2023-05-14T16:51:19.775Z,51.20
2023-05-14T16:53:46.127Z,54.83
2023-05-14T16:56:12.487Z,58.13
2023-05-14T16:58:38.857Z,57.12
2023-05-14T17:01:07.414Z,57.08
2023-05-14T17:03:35.769Z,60.06
2023-05-14T17:06:02.169Z,57.67
2023-05-14T17:08:28.651Z,59.20
2023-05-14T17:10:54.995Z,59.18
2023-05-14T17:13:21.380Z,59.06
2023-05-14T17:15:47.778Z,57.72
2023-05-14T17:18:14.161Z,57.80
2023-05-14T17:20:40.533Z,58.48
2023-05-14T17:23:06.873Z,57.29
2023-05-14T17:25:33.257Z,58.83
2023-05-14T17:27:59.654Z,57.31
2023-05-14T17:30:26.006Z,54.94
2023-05-14T17:32:52.399Z,55.67
2023-05-14T17:35:18.816Z,58.56
2023-05-14T17:37:45.158Z,59.69
2023-05-14T17:40:11.533Z,58.68
2023-05-14T17:42:37.897Z,58.64
2023-05-14T17:45:04.296Z,58.31
2023-05-14T17:47:30.698Z,58.68
2023-05-14T17:49:57.097Z,60.04
2023-05-14T17:52:23.482Z,59.91
2023-05-14T17:54:49.883Z,60.15
2023-05-14T17:57:16.287Z,59.99
2023-05-14T17:59:42.681Z,60.01
2023-05-14T18:02:09.024Z,61.33
2023-05-14T18:04:35.394Z,61.05
2023-05-14T18:07:02.785Z,61.55
2023-05-14T18:09:29.176Z,61.66
2023-05-14T18:11:56.924Z,61.39
2023-05-14T18:14:23.487Z,63.73
2023-05-14T18:16:49.981Z,65.97
2023-05-14T18:19:16.392Z,66.19
2023-05-14T18:21:42.793Z,67.31
2023-05-14T18:24:09.151Z,66.89
2023-05-14T18:26:35.539Z,64.24
2023-05-14T18:29:01.948Z,64.32
2023-05-14T18:31:28.550Z,64.36
2023-05-14T18:33:54.945Z,65.33
2023-05-14T18:36:21.318Z,66.87
2023-05-14T18:38:47.700Z,66.73
2023-05-14T18:41:14.085Z,66.73
2023-05-14T18:43:40.499Z,68.35
2023-05-14T18:46:06.971Z,70.25
2023-05-14T18:48:33.398Z,68.16
2023-05-14T18:50:59.822Z,69.51
2023-05-14T18:53:26.228Z,70.66
2023-05-14T18:55:52.609Z,72.78
2023-05-14T18:58:18.986Z,72.93
2023-05-14T19:00:45.358Z,74.13
2023-05-14T19:03:11.897Z,73.85
2023-05-14T19:05:38.386Z,74.24
2023-05-14T19:08:04.735Z,77.67
2023-05-14T19:10:31.078Z,77.75
2023-05-14T19:12:57.470Z,79.85
2023-05-14T19:15:23.974Z,81.22
2023-05-14T19:17:50.582Z,84.51
2023-05-14T19:20:16.962Z,85.04
2023-05-14T19:22:43.346Z,86.00
2023-05-14T19:25:09.714Z,85.65
2023-05-14T19:27:36.098Z,85.74
2023-05-14T19:30:02.467Z,84.15
2023-05-14T19:32:29.084Z,85.12
2023-05-14T19:34:55.494Z,84.94
2023-05-14T19:37:21.836Z,86.71
2023-05-14T19:39:48.222Z,83.24
2023-05-14T19:42:14.599Z,83.73
2023-05-14T19:44:40.984Z,85.81
2023-05-14T19:47:07.668Z,87.94
2023-05-14T19:49:34.164Z,90.84
2023-05-14T19:52:00.511Z,92.38
2023-05-14T19:54:26.846Z,93.01
2023-05-14T19:56:53.212Z,94.24
2023-05-14T19:59:19.596Z,94.83
2023-05-14T20:01:45.950Z,95.12
2023-05-14T20:04:12.292Z,95.98
2023-05-14T20:06:38.679Z,98.21
2023-05-14T20:09:05.042Z,98.08
2023-05-14T20:11:31.373Z,98.45
2023-05-14T20:13:57.734Z,98.01
2023-05-14T20:16:24.163Z,98.25
2023-05-14T20:18:50.576Z,97.83
2023-05-14T20:21:16.983Z,97.67
2023-05-14T20:23:43.374Z,96.71
2023-05-14T20:26:09.746Z,96.54
2023-05-14T20:28:36.114Z,95.97
2023-05-14T20:31:02.531Z,94.96
2023-05-14T20:33:28.985Z,94.23
2023-05-14T20:35:55.369Z,93.39
2023-05-14T20:38:21.773Z,94.15
2023-05-14T20:40:48.183Z,94.23
2023-05-14T20:43:14.577Z,94.75
2023-05-14T20:45:40.952Z,94.88
2023-05-14T20:48:07.392Z,94.10
2023-05-14T20:50:33.825Z,93.97
2023-05-14T20:53:00.165Z,93.75
2023-05-14T20:55:26.730Z,93.62
2023-05-14T20:57:53.332Z,94.15
2023-05-14T21:00:19.709Z,93.54
2023-05-14T21:02:46.215Z,94.01
2023-05-14T21:05:12.671Z,94.16
2023-05-14T21:07:39.069Z,94.81
2023-05-14T21:10:05.514Z,95.35
2023-05-14T21:12:31.913Z,94.78
2023-05-14T21:14:58.269Z,94.81
2023-05-14T21:17:24.665Z,94.77
2023-05-14T21:19:51.072Z,93.57
2023-05-14T21:22:17.503Z,93.47
2023-05-14T21:24:43.871Z,93.44
2023-05-14T21:27:10.240Z,93.14
2023-05-14T21:29:36.609Z,93.37
2023-05-14T21:32:02.996Z,93.17
2023-05-14T21:34:31.240Z,93.43
2023-05-14T21:36:58.412Z,96.21
2023-05-14T21:39:24.800Z,94.95
2023-05-14T21:41:51.249Z,96.35
2023-05-14T21:44:17.657Z,96.84
2023-05-14T21:46:44.066Z,97.24
2023-05-14T21:49:10.468Z,98.10
2023-05-14T21:51:36.876Z,96.24
2023-05-14T21:54:03.278Z,95.30
2023-05-14T21:56:29.637Z,93.47
2023-05-14T21:58:56.038Z,92.97
2023-05-14T22:01:22.494Z,92.82
2023-05-14T22:03:48.953Z,93.68
2023-05-14T22:06:15.338Z,93.92
2023-05-14T22:08:41.723Z,93.58
2023-05-14T22:11:08.108Z,94.32
2023-05-14T22:13:34.451Z,94.93
2023-05-14T22:16:12.016Z,95.83
2023-05-14T22:18:39.439Z,95.70
2023-05-14T22:21:05.882Z,95.81
2023-05-14T22:23:32.287Z,96.47
2023-05-14T22:25:58.642Z,95.71
2023-05-14T22:28:25.058Z,94.86
2023-05-14T22:30:51.466Z,94.81
2023-05-14T22:33:17.822Z,96.40
2023-05-14T22:35:44.161Z,95.26
2023-05-14T22:38:10.512Z,96.00
2023-05-14T22:40:36.892Z,95.71
2023-05-14T22:43:03.253Z,95.33
2023-05-14T22:45:29.628Z,96.19
2023-05-14T22:47:56.067Z,96.31
2023-05-14T22:50:22.509Z,97.56
2023-05-14T22:52:48.917Z,99.61
2023-05-14T22:55:15.301Z,100.00
2023-05-14T22:57:41.639Z,98.97
2023-05-14T23:00:08.029Z,99.99
2023-05-14T23:02:34.430Z,100.00
2023-05-14T23:05:00.774Z,100.00
2023-05-14T23:07:27.242Z,100.00
2023-05-14T23:09:53.636Z,100.00
2023-05-14T23:12:19.992Z,100.00
2023-05-14T23:14:46.324Z,100.00
2023-05-14T23:17:12.655Z,100.00
2023-05-14T23:19:39.106Z,100.00
2023-05-14T23:22:05.524Z,100.00
2023-05-14T23:24:31.894Z,100.00
2023-05-14T23:26:58.257Z,100.00
2023-05-14T23:29:24.613Z,100.00
2023-05-14T23:31:51.029Z,100.00
2023-05-14T23:34:17.420Z,100.00
2023-05-14T23:36:43.736Z,100.00
2023-05-14T23:39:10.249Z,100.00
2023-05-14T23:41:36.556Z,100.00
2023-05-14T23:44:02.893Z,100.00
2023-05-14T23:46:29.311Z,100.00
2023-05-14T23:48:55.687Z,100.00
2023-05-14T23:51:22.059Z,100.00
2023-05-14T23:53:48.424Z,100.00
2023-05-14T23:56:14.712Z,100.00
2023-05-14T23:58:41.072Z,100.00
